This is the latest recevied weather packets stored in our database for station/object OE-11121. If no packets are shown the sender has not sent any weather packets the latest 10 day(s).
| Time | Temp. | Humidity | Pressure | Rain* | Wind** | Luminosity | Snow |
|---|---|---|---|---|---|---|---|
| 1788006333 | 23.33° C | 48% | 1014.6 hPa | 0 mm | - | 817 W/m² | - |
| 1788005505 | 22.78° C | 48% | 1014.8 hPa | 0 mm | - | 817 W/m² | - |
| 1788005133 | 22.78° C | 50% | 1015.1 hPa | 0 mm | - | 829 W/m² | - |
| 1788004533 | 22.22° C | 53% | 1015.2 hPa | 0 mm | - | 829 W/m² | - |
| 1788003706 | 22.22° C | 50% | 1015.5 hPa | 0 mm | - | 829 W/m² | - |
| 1788003333 | 22.22° C | 56% | 1015.6 hPa | 0 mm | - | 829 W/m² | - |
| 1788002733 | 21.67° C | 56% | 1015.8 hPa | 0 mm | - | 829 W/m² | - |
| 1788001906 | 21.67° C | 59% | 1015.9 hPa | 0 mm | - | 829 W/m² | - |
| 1788001533 | 21.11° C | 59% | 1016.3 hPa | 0 mm | - | 829 W/m² | - |
| 1788000933 | 20.56° C | 61% | 1016.5 hPa | 0 mm | - | 817 W/m² | - |
| 1788000106 | 20° C | 62% | 1016.9 hPa | 0 mm | - | 817 W/m² | - |
| 1787999733 | 20° C | 64% | 1017.2 hPa | 0 mm | - | 805 W/m² | - |
| 1787999133 | 20° C | 66% | 1017.3 hPa | 0 mm | - | 793 W/m² | - |
| 1787998306 | 19.44° C | 66% | 1017.5 hPa | 0 mm | - | 781 W/m² | - |
| 1787997932 | 18.89° C | 66% | 1017.7 hPa | 0 mm | - | 769 W/m² | - |
| 1787997333 | 19.44° C | 66% | 1017.8 hPa | 0 mm | - | 757 W/m² | - |
| 1787996506 | 18.89° C | 69% | 1018.1 hPa | 0 mm | - | 769 W/m² | - |
| 1787996132 | 18.89° C | 68% | 1018.1 hPa | 0 mm | - | 769 W/m² | - |
| 1787995533 | 18.33° C | 68% | 1018.5 hPa | 0 mm | - | 637 W/m² | - |
| 1787994706 | 18.33° C | 69% | 1018.6 hPa | 0 mm | - | 757 W/m² | - |
| 1787994333 | 17.78° C | 71% | 1018.8 hPa | 0 mm | - | 421 W/m² | - |
| 1787993733 | 17.22° C | 72% | 1019 hPa | 0 mm | - | 240 W/m² | - |
| 1787992905 | 17.22° C | 75% | 1019 hPa | 0 mm | - | 240 W/m² | - |
| 1787992532 | 17.22° C | 74% | 1019.1 hPa | 0 mm | - | 565 W/m² | - |
| 1787991933 | 17.78° C | 74% | 1019 hPa | 0 mm | - | 625 W/m² | - |
* Rain latest hour (hover to see other rain measurements)
** Current wind speed in m/s (hover to see current wind gust speed)